Accueil
METAR-TAF:

METAR-TAF

Aéroports :

Bergame, Italie

Aéroport de Bergame-Orio al Serio

latitude: 45-40N, longitude: 009-42E, altitude: 238 m

Observation

Le bulletin a été fait il y a 34 minutes, à 02:50 UTC
Vent 4 kt de nord
Température 10°C
Humidité 87%
Pression 1018 hPa
Visibilité: 4000 m
brume

METAR: LIME 190250Z 01004KT 4000 BR NSC 10/08 Q1018 NOSIG

Heure: 05:24 (03:24 UTC)

Prévision

Le bulletin a été fait il y a 4 heures et 24 minutes, à 23:00 UTC
Prévision valable du 19 à 00 UTC au 19 à 24 UTC
Vent 5 kt de direction variable
Visibilité: 4000 m
brume

TAF: LIME 182300Z 1900/1924 VRB05KT 4000 BR NSC

Observations et prévisions météorologiques de plus de 4000 aéroports (messages METAR et TAF).

Les stations disponibles sont représentées par des disques jaunes et rouges sur la carte.

Passer la souris dessus pour voir le nom de la station.

Cliquer dessus pour voir les observations et prévisions météorologiques.

Pour changer de carte: cliquez sur les boutons verts avec une croix noire pour zoomer, sur le bouton vert avec un tiret pour effectuer un zoom arrière, ou sur les flèches vertes pour les cartes adjacentes.


METAR-TAF: